createdAt,value
2023-01-25T00:00:28.759Z,-1.703
2023-01-25T00:01:28.798Z,-1.687
2023-01-25T00:02:28.961Z,-1.67
2023-01-25T00:03:28.927Z,-1.648
2023-01-25T00:04:28.923Z,-1.632
2023-01-25T00:05:28.941Z,-1.632
2023-01-25T00:06:28.988Z,-1.648
2023-01-25T00:07:29.001Z,-1.648
2023-01-25T00:08:29.037Z,-1.615
2023-01-25T00:09:29.074Z,-1.583
2023-01-25T00:10:29.118Z,-1.551
2023-01-25T00:11:29.147Z,-1.534
2023-01-25T00:12:29.194Z,-1.518
2023-01-25T00:13:29.222Z,-1.496
2023-01-25T00:14:29.260Z,-1.512
2023-01-25T00:15:29.298Z,-1.496
2023-01-25T00:16:29.411Z,-1.48
2023-01-25T00:17:29.381Z,-1.48
2023-01-25T00:18:29.435Z,-1.399
2023-01-25T00:19:29.457Z,-1.399
2023-01-25T00:20:29.499Z,-1.431
2023-01-25T00:21:29.526Z,-1.409
2023-01-25T00:22:29.572Z,-1.441
2023-01-25T00:23:29.600Z,-1.441
2023-01-25T00:24:29.643Z,-1.467
2023-01-25T00:25:29.671Z,-1.483
2023-01-25T00:26:29.748Z,-1.483
2023-01-25T00:27:29.720Z,-1.515
2023-01-25T00:28:29.762Z,-1.531
2023-01-25T00:29:29.787Z,-1.526
2023-01-25T00:30:29.821Z,-1.542
2023-01-25T00:31:29.991Z,-1.558
2023-01-25T00:32:30.006Z,-1.575
2023-01-25T00:33:29.911Z,-1.607
2023-01-25T00:34:30.019Z,-1.64
2023-01-25T00:35:29.982Z,-1.617
2023-01-25T00:36:30.035Z,-1.624
2023-01-25T00:37:30.061Z,-1.634
2023-01-25T00:38:30.100Z,-1.65
2023-01-25T00:39:30.163Z,-1.65
2023-01-25T00:40:30.177Z,-1.617
2023-01-25T00:41:30.209Z,-1.617
2023-01-25T00:42:30.238Z,-1.585
2023-01-25T00:43:30.278Z,-1.568
2023-01-25T00:44:30.313Z,-1.552
2023-01-25T00:45:30.340Z,-1.568
2023-01-25T00:46:30.392Z,-1.588
2023-01-25T00:47:30.405Z,-1.555
2023-01-25T00:48:30.450Z,-1.571
2023-01-25T00:49:30.468Z,-1.558
2023-01-25T00:50:30.509Z,-1.526
2023-01-25T00:51:30.523Z,-1.561
2023-01-25T00:52:30.564Z,-1.577
2023-01-25T00:53:30.596Z,-1.561
2023-01-25T00:54:30.654Z,-1.496
2023-01-25T00:55:30.691Z,-1.48
2023-01-25T00:56:30.721Z,-1.496
2023-01-25T00:57:30.762Z,-1.528
2023-01-25T00:58:30.814Z,-1.528
2023-01-25T00:59:30.827Z,-1.496
2023-01-25T01:00:30.864Z,-1.512
2023-01-25T01:01:31.013Z,-1.48
2023-01-25T01:02:30.939Z,-1.464
2023-01-25T01:03:30.976Z,-1.399
2023-01-25T01:04:31.171Z,-1.431
2023-01-25T01:05:31.045Z,-1.464
2023-01-25T01:06:31.085Z,-1.48
2023-01-25T01:07:31.213Z,-1.464
2023-01-25T01:08:31.144Z,-1.413
2023-01-25T01:09:31.195Z,-1.413
2023-01-25T01:10:31.224Z,-1.434
2023-01-25T01:11:31.260Z,-1.402
2023-01-25T01:12:31.295Z,-1.37
2023-01-25T01:13:31.333Z,-1.386
2023-01-25T01:14:31.365Z,-1.418
2023-01-25T01:15:31.406Z,-1.402
2023-01-25T01:16:31.476Z,-1.37
2023-01-25T01:17:31.476Z,-1.354
2023-01-25T01:18:31.510Z,-1.354
2023-01-25T01:19:31.586Z,-1.37
2023-01-25T01:20:31.579Z,-1.402
2023-01-25T01:21:31.605Z,-1.418
2023-01-25T01:22:31.648Z,-1.434
2023-01-25T01:23:31.693Z,-1.418
2023-01-25T01:24:31.819Z,-1.418
2023-01-25T01:25:31.760Z,-1.467
2023-01-25T01:26:31.828Z,-1.45
2023-01-25T01:27:31.830Z,-1.467
2023-01-25T01:28:31.875Z,-1.483
2023-01-25T01:29:31.907Z,-1.489
2023-01-25T01:30:31.941Z,-1.473
2023-01-25T01:31:32.088Z,-1.457
2023-01-25T01:32:32.117Z,-1.457
2023-01-25T01:33:33.442Z,-1.457
2023-01-25T01:34:32.081Z,-1.464
2023-01-25T01:35:32.127Z,-1.447
2023-01-25T01:36:32.146Z,-1.431
2023-01-25T01:37:32.185Z,-1.415
2023-01-25T01:38:32.231Z,-1.399
2023-01-25T01:39:32.261Z,-1.399
2023-01-25T01:40:32.285Z,-1.399
2023-01-25T01:41:32.330Z,-1.383
2023-01-25T01:42:32.354Z,-1.399
2023-01-25T01:43:32.386Z,-1.468
2023-01-25T01:44:32.432Z,-1.468
2023-01-25T01:45:32.525Z,-1.5
2023-01-25T01:46:32.488Z,-1.532
2023-01-25T01:47:32.536Z,-1.538
2023-01-25T01:48:32.568Z,-1.506
2023-01-25T01:49:32.746Z,-1.49
2023-01-25T01:50:32.638Z,-1.49
2023-01-25T01:51:32.678Z,-1.506
2023-01-25T01:52:32.717Z,-1.522
2023-01-25T01:53:32.751Z,-1.522
2023-01-25T01:54:32.802Z,-1.522
2023-01-25T01:55:32.815Z,-1.49
2023-01-25T01:56:32.955Z,-1.522
2023-01-25T01:57:32.885Z,-1.49
2023-01-25T01:58:32.931Z,-1.484
2023-01-25T01:59:32.957Z,-1.484
2023-01-25T02:00:32.990Z,-1.484
2023-01-25T02:01:33.123Z,-1.452
2023-01-25T02:02:33.165Z,-1.484
2023-01-25T02:03:33.106Z,-1.516
2023-01-25T02:04:33.130Z,-1.522
2023-01-25T02:05:33.167Z,-1.49
2023-01-25T02:06:33.214Z,-1.465
2023-01-25T02:07:34.995Z,-1.449
2023-01-25T02:08:33.283Z,-1.401
2023-01-25T02:09:33.314Z,-1.362
2023-01-25T02:10:33.343Z,-1.346
2023-01-25T02:11:33.386Z,-1.33
2023-01-25T02:12:33.432Z,-1.33
2023-01-25T02:13:33.453Z,-1.33
2023-01-25T02:14:33.483Z,-1.346
2023-01-25T02:15:33.548Z,-1.33
2023-01-25T02:16:33.542Z,-1.346
2023-01-25T02:17:33.608Z,-1.346
2023-01-25T02:18:33.625Z,-1.378
2023-01-25T02:19:33.685Z,-1.362
2023-01-25T02:20:33.691Z,-1.346
2023-01-25T02:21:33.725Z,-1.346
2023-01-25T02:22:33.758Z,-1.33
2023-01-25T02:23:33.795Z,-1.293
2023-01-25T02:24:33.856Z,-1.277
2023-01-25T02:25:33.863Z,-1.277
2023-01-25T02:26:33.914Z,-1.309
2023-01-25T02:27:33.937Z,-1.309
2023-01-25T02:28:33.984Z,-1.35
2023-01-25T02:29:34.015Z,-1.372
2023-01-25T02:30:34.060Z,-1.341
2023-01-25T02:31:34.241Z,-1.309
2023-01-25T02:32:34.140Z,-1.286
2023-01-25T02:33:34.188Z,-1.27
2023-01-25T02:34:34.196Z,-1.27
2023-01-25T02:35:34.243Z,-1.254
2023-01-25T02:36:34.268Z,-1.239
2023-01-25T02:37:34.320Z,-1.239
2023-01-25T02:38:34.355Z,-1.27
2023-01-25T02:39:34.398Z,-1.286
2023-01-25T02:40:34.417Z,-1.286
2023-01-25T02:41:34.461Z,-1.254
2023-01-25T02:42:34.493Z,-1.254
2023-01-25T02:43:34.524Z,-1.239
2023-01-25T02:44:34.743Z,-1.239
2023-01-25T02:45:34.613Z,-1.239
2023-01-25T02:46:34.725Z,-1.239
2023-01-25T02:47:34.678Z,-1.239
2023-01-25T02:48:34.712Z,-1.239
2023-01-25T02:49:34.767Z,-1.223
2023-01-25T02:50:34.786Z,-1.223
2023-01-25T02:51:34.831Z,-1.207
2023-01-25T02:52:34.858Z,-1.223
2023-01-25T02:53:34.898Z,-1.232
2023-01-25T02:54:34.916Z,-1.216
2023-01-25T02:55:34.965Z,-1.216
2023-01-25T02:56:34.987Z,-1.2
2023-01-25T02:57:35.023Z,-1.2
2023-01-25T02:58:35.066Z,-1.2
2023-01-25T02:59:35.096Z,-1.2
2023-01-25T03:00:35.140Z,-1.2
2023-01-25T03:01:35.243Z,-1.232
2023-01-25T03:02:35.288Z,-1.248
2023-01-25T03:03:35.284Z,-1.232
2023-01-25T03:04:35.280Z,-1.232
2023-01-25T03:05:35.309Z,-1.232
2023-01-25T03:06:35.357Z,-1.241
2023-01-25T03:07:35.400Z,-1.241
2023-01-25T03:08:35.430Z,-1.241
2023-01-25T03:09:35.470Z,-1.263
2023-01-25T03:10:35.484Z,-1.225
2023-01-25T03:11:35.516Z,-1.248
2023-01-25T03:12:35.554Z,-1.232
2023-01-25T03:13:35.586Z,-1.2
2023-01-25T03:14:35.641Z,-1.169
2023-01-25T03:15:35.662Z,-1.153
2023-01-25T03:16:35.837Z,-1.137
2023-01-25T03:17:35.740Z,-1.121
2023-01-25T03:18:35.775Z,-1.121
2023-01-25T03:19:35.805Z,-1.083
2023-01-25T03:20:35.866Z,-1.099
2023-01-25T03:21:35.925Z,-1.099
2023-01-25T03:22:35.914Z,-1.146
2023-01-25T03:23:35.946Z,-1.177
2023-01-25T03:24:36.015Z,-1.209
2023-01-25T03:25:36.018Z,-1.225
2023-01-25T03:26:36.049Z,-1.225
2023-01-25T03:27:36.112Z,-1.225
2023-01-25T03:28:36.121Z,-1.263
2023-01-25T03:29:36.154Z,-1.241
2023-01-25T03:30:36.190Z,-1.225
2023-01-25T03:31:36.374Z,-1.193
2023-01-25T03:32:36.256Z,-1.193
2023-01-25T03:33:36.299Z,-1.209
2023-01-25T03:34:36.328Z,-1.225
2023-01-25T03:35:36.359Z,-1.241
2023-01-25T03:36:36.382Z,-1.241
2023-01-25T03:37:36.426Z,-1.241
2023-01-25T03:38:36.456Z,-1.241
2023-01-25T03:39:36.523Z,-1.273
2023-01-25T03:40:36.531Z,-1.257
2023-01-25T03:41:36.561Z,-1.241
2023-01-25T03:42:36.589Z,-1.225
2023-01-25T03:43:36.622Z,-1.209
2023-01-25T03:44:36.672Z,-1.209
2023-01-25T03:45:36.687Z,-1.209
2023-01-25T03:46:36.846Z,-1.193
2023-01-25T03:47:36.769Z,-1.162
2023-01-25T03:48:36.797Z,-1.162
2023-01-25T03:49:36.828Z,-1.146
2023-01-25T03:50:36.855Z,-1.146
2023-01-25T03:51:36.920Z,-1.13
2023-01-25T03:52:36.922Z,-1.13
2023-01-25T03:53:36.956Z,-1.169
2023-01-25T03:54:36.984Z,-1.169
2023-01-25T03:55:37.029Z,-1.169
2023-01-25T03:56:37.060Z,-1.184
2023-01-25T03:57:37.098Z,-1.153
2023-01-25T03:58:37.129Z,-1.128
2023-01-25T03:59:37.175Z,-1.113
2023-01-25T04:00:37.225Z,-1.088
2023-01-25T04:01:37.243Z,-1.057
2023-01-25T04:02:37.458Z,-1.042
2023-01-25T04:03:37.325Z,-1.003
2023-01-25T04:04:37.368Z,-1.003
2023-01-25T04:05:37.402Z,-1.003
2023-01-25T04:06:37.440Z,-1.034
2023-01-25T04:07:37.472Z,-1.034
2023-01-25T04:08:37.513Z,-1.034
2023-01-25T04:09:37.573Z,-1.027
2023-01-25T04:10:37.591Z,-1.027
2023-01-25T04:11:37.619Z,-1.043
2023-01-25T04:12:37.663Z,-1.027
2023-01-25T04:13:37.691Z,-0.9961
2023-01-25T04:14:44.274Z,-1.012
2023-01-25T04:15:37.764Z,-1.059
2023-01-25T04:16:37.956Z,-1.059
2023-01-25T04:17:37.841Z,-1.113
2023-01-25T04:18:37.893Z,-1.097
2023-01-25T04:19:37.925Z,-1.013
2023-01-25T04:20:37.943Z,-0.9814
2023-01-25T04:21:38.037Z,-0.9502
2023-01-25T04:22:38.011Z,-0.9347
2023-01-25T04:23:38.064Z,-0.8808
2023-01-25T04:24:38.074Z,-0.912
2023-01-25T04:25:38.124Z,-0.9275
2023-01-25T04:26:38.160Z,-0.9431
2023-01-25T04:27:38.191Z,-0.9431
2023-01-25T04:28:38.236Z,-0.9431
2023-01-25T04:29:41.571Z,-0.9431
2023-01-25T04:30:38.299Z,-0.9431
2023-01-25T04:31:38.578Z,-0.9658
2023-01-25T04:32:38.515Z,-0.9347
2023-01-25T04:33:38.397Z,-0.9191
2023-01-25T04:34:38.460Z,-0.9347
2023-01-25T04:35:38.480Z,-0.9191
2023-01-25T04:36:38.524Z,-0.9191
2023-01-25T04:37:38.535Z,-0.8881
2023-01-25T04:38:38.585Z,-0.8798
2023-01-25T04:39:38.657Z,-0.8261
2023-01-25T04:40:38.672Z,-0.8261
2023-01-25T04:41:38.689Z,-0.8107
2023-01-25T04:42:38.735Z,-0.8107
2023-01-25T04:43:38.781Z,-0.8107
2023-01-25T04:44:38.840Z,-0.8261
2023-01-25T04:45:38.924Z,-0.8188
2023-01-25T04:46:38.880Z,-0.8188
2023-01-25T04:47:38.924Z,-0.8498
2023-01-25T04:48:38.970Z,-0.8653
2023-01-25T04:49:38.989Z,-0.8653
2023-01-25T04:50:39.023Z,-0.8746
2023-01-25T04:51:39.060Z,-0.8591
2023-01-25T04:52:39.101Z,-0.8746
2023-01-25T04:53:39.128Z,-0.9058
2023-01-25T04:54:39.169Z,-0.8902
2023-01-25T04:55:39.203Z,-0.9058
2023-01-25T04:56:39.244Z,-0.9058
2023-01-25T04:57:39.282Z,-0.912
2023-01-25T04:58:39.322Z,-0.8808
2023-01-25T04:59:39.383Z,-0.8435
2023-01-25T05:00:39.390Z,-0.8591
2023-01-25T05:01:39.468Z,-0.8653
2023-01-25T05:02:39.587Z,-0.8343
2023-01-25T05:03:39.494Z,-0.8034
2023-01-25T05:04:39.562Z,-0.7725
2023-01-25T05:05:39.565Z,-0.8107
2023-01-25T05:06:39.635Z,-0.7798
2023-01-25T05:07:39.635Z,-0.7798
2023-01-25T05:08:39.677Z,-0.7798
2023-01-25T05:09:39.707Z,-0.7644
2023-01-25T05:10:39.748Z,-0.7263
2023-01-25T05:11:39.786Z,-0.7263
2023-01-25T05:12:39.808Z,-0.7263
2023-01-25T05:13:39.857Z,-0.7263
2023-01-25T05:14:39.871Z,-0.7199
2023-01-25T05:15:39.908Z,-0.7703
2023-01-25T05:16:40.002Z,-0.8012
2023-01-25T05:17:39.973Z,-0.8264
2023-01-25T05:18:48.459Z,-0.8419
2023-01-25T05:19:40.044Z,-0.8729
2023-01-25T05:20:40.077Z,-0.8884
2023-01-25T05:21:40.117Z,-0.8574
2023-01-25T05:22:40.150Z,-0.8574
2023-01-25T05:23:40.177Z,-0.8574
2023-01-25T05:24:40.209Z,-0.8574
2023-01-25T05:25:40.241Z,-0.8559
2023-01-25T05:26:40.278Z,-0.7981
2023-01-25T05:27:40.324Z,-0.7981
2023-01-25T05:28:40.357Z,-0.8292
2023-01-25T05:29:40.423Z,-0.8136
2023-01-25T05:30:40.491Z,-0.8208
2023-01-25T05:31:40.465Z,-0.7743
2023-01-25T05:32:40.502Z,-0.7955
2023-01-25T05:33:40.531Z,-0.7801
2023-01-25T05:34:40.606Z,-0.7874
2023-01-25T05:35:40.618Z,-0.772
2023-01-25T05:36:40.652Z,-0.6971
2023-01-25T05:37:40.695Z,-0.6971
2023-01-25T05:38:40.717Z,-0.7647
2023-01-25T05:39:40.752Z,-0.7647
2023-01-25T05:40:40.793Z,-0.7647
2023-01-25T05:41:40.822Z,-0.7801
2023-01-25T05:42:40.856Z,-0.7801
2023-01-25T05:43:40.888Z,-0.7801
2023-01-25T05:44:40.933Z,-0.7737
2023-01-25T05:45:41.121Z,-0.7737
2023-01-25T05:46:40.996Z,-0.7892
2023-01-25T05:47:41.036Z,-0.7892
2023-01-25T05:48:41.067Z,-0.7737
2023-01-25T05:49:41.139Z,-0.7892
2023-01-25T05:50:41.139Z,-0.7737
2023-01-25T05:51:41.186Z,-0.7737
2023-01-25T05:52:41.228Z,-0.7664
2023-01-25T05:53:41.250Z,-0.7664
2023-01-25T05:54:41.327Z,-0.7819
2023-01-25T05:55:41.327Z,-0.7754
2023-01-25T05:56:41.351Z,-0.7909
2023-01-25T05:57:41.395Z,-0.7909
2023-01-25T05:58:41.423Z,-0.8064
2023-01-25T05:59:41.474Z,-0.8064
2023-01-25T06:00:41.555Z,-0.822
2023-01-25T06:01:41.519Z,-0.8064
2023-01-25T06:02:41.731Z,-0.8064
2023-01-25T06:03:41.723Z,-0.8595
2023-01-25T06:04:41.672Z,-0.8523
2023-01-25T06:05:41.680Z,-0.8523
2023-01-25T06:06:41.702Z,-0.8367
2023-01-25T06:07:41.741Z,-0.8212
2023-01-25T06:08:41.776Z,-0.8212
2023-01-25T06:09:41.825Z,-0.8212
2023-01-25T06:10:41.823Z,-0.8212
2023-01-25T06:11:41.867Z,-0.8057
2023-01-25T06:12:41.898Z,-0.8057
2023-01-25T06:13:41.935Z,-0.8057
2023-01-25T06:14:42.024Z,-0.7902
2023-01-25T06:15:42.073Z,-0.7902
2023-01-25T06:16:42.042Z,-0.7902
2023-01-25T06:17:42.077Z,-0.7674
2023-01-25T06:18:42.107Z,-0.7829
2023-01-25T06:19:42.131Z,-0.7985
2023-01-25T06:20:42.176Z,-0.7985
2023-01-25T06:21:42.215Z,-0.7985
2023-01-25T06:22:42.240Z,-0.7985
2023-01-25T06:23:44.249Z,-0.7985
2023-01-25T06:24:42.307Z,-0.814
2023-01-25T06:25:42.340Z,-0.7913
2023-01-25T06:26:42.380Z,-0.8296
2023-01-25T06:27:42.421Z,-0.8225
2023-01-25T06:28:42.477Z,-0.8225
2023-01-25T06:29:42.491Z,-0.8381
2023-01-25T06:30:42.689Z,-0.8537
2023-01-25T06:31:42.804Z,-0.8693
2023-01-25T06:32:42.617Z,-0.8693
2023-01-25T06:33:42.640Z,-0.8693
2023-01-25T06:34:42.668Z,-0.885
2023-01-25T06:35:42.713Z,-0.8693
2023-01-25T06:36:42.751Z,-0.8693
2023-01-25T06:37:42.786Z,-0.8693
2023-01-25T06:38:42.838Z,-0.885
2023-01-25T06:39:42.875Z,-0.885
2023-01-25T06:40:42.874Z,-0.8693
2023-01-25T06:41:42.914Z,-0.8693
2023-01-25T06:42:42.929Z,-0.885
2023-01-25T06:43:42.984Z,-0.8632
2023-01-25T06:44:43.032Z,-0.7946
2023-01-25T06:45:43.052Z,-0.7789
2023-01-25T06:46:43.191Z,-0.7946
2023-01-25T06:47:43.120Z,-0.7789
2023-01-25T06:48:43.228Z,-0.7946
2023-01-25T06:49:43.208Z,-0.7946
2023-01-25T06:50:43.241Z,-0.7946
2023-01-25T06:51:43.289Z,-0.8102
2023-01-25T06:52:43.297Z,-0.7946
2023-01-25T06:53:43.401Z,-0.8102
2023-01-25T06:54:43.374Z,-0.8259
2023-01-25T06:55:43.413Z,-0.8416
2023-01-25T06:56:43.449Z,-0.8573
2023-01-25T06:57:43.487Z,-0.8573
2023-01-25T06:58:43.518Z,-0.873
2023-01-25T06:59:43.560Z,-0.873
2023-01-25T07:00:43.595Z,-0.8573
2023-01-25T07:01:43.719Z,-0.873
2023-01-25T07:02:43.742Z,-0.9115
2023-01-25T07:03:43.711Z,-0.9115
2023-01-25T07:04:43.743Z,-0.88
2023-01-25T07:05:43.783Z,-0.88
2023-01-25T07:06:43.818Z,-0.8643
2023-01-25T07:07:43.850Z,-0.8486
2023-01-25T07:08:43.886Z,-0.8329
2023-01-25T07:09:43.942Z,-0.8329
2023-01-25T07:10:43.955Z,-0.8486
2023-01-25T07:11:43.995Z,-0.8556
2023-01-25T07:12:44.014Z,-0.8713
2023-01-25T07:13:44.059Z,-0.887
2023-01-25T07:14:44.121Z,-0.8713
2023-01-25T07:15:44.181Z,-0.8774
2023-01-25T07:16:44.203Z,-0.8618
2023-01-25T07:17:44.208Z,-0.8618
2023-01-25T07:18:44.246Z,-0.8461
2023-01-25T07:19:44.262Z,-0.8149
2023-01-25T07:20:44.304Z,-0.8149
2023-01-25T07:21:44.354Z,-0.8305
2023-01-25T07:22:44.374Z,-0.8461
2023-01-25T07:23:44.422Z,-0.8461
2023-01-25T07:24:44.432Z,-0.8087
2023-01-25T07:25:44.464Z,-0.8461
2023-01-25T07:26:44.496Z,-0.8618
2023-01-25T07:27:44.553Z,-0.8461
2023-01-25T07:28:44.578Z,-0.8149
2023-01-25T07:29:44.625Z,-0.8149
2023-01-25T07:30:44.669Z,-0.8305
2023-01-25T07:31:44.777Z,-0.8305
2023-01-25T07:32:44.730Z,-0.8461
2023-01-25T07:33:44.855Z,-0.8305
2023-01-25T07:34:44.798Z,-0.8305
2023-01-25T07:35:44.829Z,-0.8461
2023-01-25T07:36:44.891Z,-0.8461
2023-01-25T07:37:44.911Z,-0.9535
2023-01-25T07:38:44.970Z,-0.9535
2023-01-25T07:39:45.010Z,-0.9535
2023-01-25T07:40:45.019Z,-0.9535
2023-01-25T07:41:45.066Z,-0.9535
2023-01-25T07:42:45.107Z,-0.9535
2023-01-25T07:43:45.137Z,-0.9535
2023-01-25T07:44:45.189Z,-0.9379
2023-01-25T07:45:45.218Z,-0.9379
2023-01-25T07:46:45.280Z,-0.9224
2023-01-25T07:47:45.287Z,-0.9224
2023-01-25T07:48:45.321Z,-0.9224
2023-01-25T07:49:45.350Z,-0.9224
2023-01-25T07:50:45.383Z,-0.9068
2023-01-25T07:51:45.467Z,-0.8913
2023-01-25T07:52:45.484Z,-0.8757
2023-01-25T07:53:45.491Z,-0.8913
2023-01-25T07:54:47.255Z,-0.8913
2023-01-25T07:55:45.550Z,-0.8757
2023-01-25T07:56:45.591Z,-0.8602
2023-01-25T07:57:45.628Z,-0.8602
2023-01-25T07:58:45.667Z,-0.8602
2023-01-25T07:59:45.718Z,-0.8447
2023-01-25T08:00:45.723Z,-0.8447
2023-01-25T08:01:45.764Z,-0.8293
2023-01-25T08:02:45.794Z,-0.8138
2023-01-25T08:03:45.854Z,-0.8138
2023-01-25T08:04:46.143Z,-0.8293
2023-01-25T08:05:45.939Z,-0.8138
2023-01-25T08:06:45.927Z,-0.8138
2023-01-25T08:07:45.975Z,-0.7983
2023-01-25T08:08:46.000Z,-0.7983
2023-01-25T08:09:46.038Z,-0.7983
2023-01-25T08:10:46.093Z,-0.8138
2023-01-25T08:11:46.107Z,-0.8138
2023-01-25T08:12:46.143Z,-0.8138
2023-01-25T08:13:46.261Z,-0.7983
2023-01-25T08:14:46.217Z,-0.8138
2023-01-25T08:15:46.250Z,-0.8138
2023-01-25T08:16:46.331Z,-0.8211
2023-01-25T08:17:46.327Z,-0.7829
2023-01-25T08:18:46.361Z,-0.8211
2023-01-25T08:19:46.388Z,-0.8057
2023-01-25T08:20:46.441Z,-0.7903
2023-01-25T08:21:46.481Z,-0.7749
2023-01-25T08:22:46.499Z,-0.7963
2023-01-25T08:23:46.722Z,-0.7656
2023-01-25T08:24:46.561Z,-0.7503
2023-01-25T08:25:46.604Z,-0.7284
2023-01-25T08:26:46.630Z,-0.7438
2023-01-25T08:27:46.678Z,-0.7438
2023-01-25T08:28:46.753Z,-0.7438
2023-01-25T08:29:46.796Z,-0.7438
2023-01-25T08:30:56.881Z,-0.7438
2023-01-25T08:31:46.862Z,-0.6906
2023-01-25T08:32:46.852Z,-0.6906
2023-01-25T08:33:46.996Z,-0.6753
2023-01-25T08:34:46.945Z,-0.6679
2023-01-25T08:35:46.960Z,-0.6679
2023-01-25T08:36:47.041Z,-0.6832
2023-01-25T08:37:47.037Z,-0.6832
2023-01-25T08:38:47.073Z,-0.6832
2023-01-25T08:39:47.102Z,-0.6986
2023-01-25T08:40:47.144Z,-0.714
2023-01-25T08:41:47.232Z,-0.7294
2023-01-25T08:42:47.215Z,-0.714
2023-01-25T08:43:47.283Z,-0.7294
2023-01-25T08:44:47.295Z,-0.714
2023-01-25T08:45:47.307Z,-0.6986
2023-01-25T08:46:47.379Z,-0.714
2023-01-25T08:47:47.433Z,-0.714
2023-01-25T08:48:47.432Z,-0.714
2023-01-25T08:49:47.468Z,-0.714
2023-01-25T08:50:47.489Z,-0.714
2023-01-25T08:51:47.529Z,-0.714
2023-01-25T08:52:47.580Z,-0.714
2023-01-25T08:53:47.600Z,-0.714
2023-01-25T08:54:47.646Z,-0.714
2023-01-25T08:55:47.672Z,-0.714
2023-01-25T08:56:47.714Z,-0.714
2023-01-25T08:57:47.742Z,-0.7294
2023-01-25T08:58:47.797Z,-0.714
2023-01-25T08:59:47.822Z,-0.714
2023-01-25T09:00:47.838Z,-0.714
2023-01-25T09:01:47.874Z,-0.6986
2023-01-25T09:02:47.917Z,-0.6986
2023-01-25T09:03:48.049Z,-0.6832
2023-01-25T09:04:47.987Z,-0.6986
2023-01-25T09:05:48.066Z,-0.6986
2023-01-25T09:06:48.063Z,-0.7213
2023-01-25T09:07:48.529Z,-0.7213
2023-01-25T09:08:48.148Z,-0.6832
2023-01-25T09:09:48.159Z,-0.7367
2023-01-25T09:10:48.243Z,-0.7213
2023-01-25T09:11:48.217Z,-0.706
2023-01-25T09:12:48.258Z,-0.6906
2023-01-25T09:13:48.334Z,-0.7213
2023-01-25T09:14:48.314Z,-0.714
2023-01-25T09:15:48.367Z,-0.7898
2023-01-25T09:16:48.396Z,-0.7517
2023-01-25T09:17:48.420Z,-0.7517
2023-01-25T09:18:50.570Z,-0.7363
2023-01-25T09:19:48.487Z,-0.7363
2023-01-25T09:20:48.531Z,-0.7517
2023-01-25T09:21:48.573Z,-0.7824
2023-01-25T09:22:48.596Z,-0.8206
2023-01-25T09:24:04.294Z,-0.8052
2023-01-25T09:24:48.707Z,-0.7701
2023-01-25T09:25:48.711Z,-0.8223
2023-01-25T09:26:58.962Z,-0.8223
2023-01-25T09:27:48.785Z,-0.8069
2023-01-25T09:28:48.820Z,-0.7915
2023-01-25T09:30:00.901Z,-0.7915
2023-01-25T09:31:02.730Z,-0.7762
2023-01-25T09:31:49.095Z,-0.7762
2023-01-25T09:32:49.094Z,-0.7608
2023-01-25T09:33:48.979Z,-0.7762
2023-01-25T09:34:49.013Z,-0.7608
2023-01-25T09:35:49.061Z,-0.7608
2023-01-25T09:36:49.095Z,-0.7302
2023-01-25T09:37:49.109Z,-0.7302
2023-01-25T09:38:49.151Z,-0.6997
2023-01-25T09:39:49.190Z,-0.7149
2023-01-25T09:40:49.229Z,-0.7149
2023-01-25T09:41:49.273Z,-0.6997
2023-01-25T09:42:49.301Z,-0.6997
2023-01-25T09:43:49.368Z,-0.7302
2023-01-25T09:44:49.362Z,-0.7302
2023-01-25T09:45:49.394Z,-0.7149
2023-01-25T09:46:49.441Z,-0.7149
2023-01-25T09:47:49.473Z,-0.6922
2023-01-25T09:48:53.895Z,-0.7075
2023-01-25T09:49:49.585Z,-0.7075
2023-01-25T09:50:49.583Z,-0.7075
2023-01-25T09:51:49.611Z,-0.7075
2023-01-25T09:52:49.644Z,-0.7
2023-01-25T09:53:49.684Z,-0.7307
2023-01-25T09:54:49.734Z,-0.7307
2023-01-25T09:55:49.763Z,-0.7307
2023-01-25T09:56:49.807Z,-0.7307
2023-01-25T09:57:49.836Z,-0.6785
2023-01-25T09:58:49.867Z,-0.6711
2023-01-25T09:59:49.960Z,-0.7263
2023-01-25T10:00:49.925Z,-0.7369
2023-01-25T10:01:50.045Z,-0.7215
2023-01-25T10:02:50.039Z,-0.7443
2023-01-25T10:03:50.041Z,-0.7443
2023-01-25T10:04:50.065Z,-0.7443
2023-01-25T10:05:50.124Z,-0.7443
2023-01-25T10:06:59.831Z,-0.7215
2023-01-25T10:07:50.171Z,-0.7443
2023-01-25T10:08:50.207Z,-0.7443
2023-01-25T10:09:50.250Z,-0.7215
2023-01-25T10:10:50.282Z,-0.7215
2023-01-25T10:11:50.327Z,-0.7215
2023-01-25T10:12:50.339Z,-0.7136
2023-01-25T10:13:50.393Z,-0.7136
2023-01-25T10:14:50.429Z,-0.7289
2023-01-25T10:15:50.501Z,-0.7443
2023-01-25T10:16:50.549Z,-0.7443
2023-01-25T10:17:50.543Z,-0.6938
2023-01-25T10:18:50.567Z,-0.6785
2023-01-25T10:19:50.604Z,-0.7136
2023-01-25T10:20:50.643Z,-0.6956
2023-01-25T10:21:50.673Z,-0.7109
2023-01-25T10:22:50.724Z,-0.7263
2023-01-25T10:23:50.818Z,-0.7289
2023-01-25T10:24:50.773Z,-0.7597
2023-01-25T10:25:50.832Z,-0.7751
2023-01-25T10:26:50.859Z,-0.7751
2023-01-25T10:27:50.867Z,-0.7173
2023-01-25T10:28:50.906Z,-0.7156
2023-01-25T10:29:50.945Z,-0.7002
2023-01-25T10:30:51.026Z,-0.7002
2023-01-25T10:31:51.116Z,-0.6848
2023-01-25T10:32:55.840Z,-0.7002
2023-01-25T10:33:51.100Z,-0.6848
2023-01-25T10:34:56.708Z,-0.7002
2023-01-25T10:35:51.150Z,-0.6317
2023-01-25T10:36:51.198Z,-0.6471
2023-01-25T10:37:51.220Z,-0.6471
2023-01-25T10:38:51.252Z,-0.6471
2023-01-25T10:39:51.279Z,-0.6398
2023-01-25T10:40:51.324Z,-0.6244
2023-01-25T10:41:51.347Z,-0.6244
2023-01-25T10:42:51.380Z,-0.6929
2023-01-25T10:43:51.449Z,-0.7002
2023-01-25T10:44:51.457Z,-0.7156
2023-01-25T10:45:51.486Z,-0.7156
2023-01-25T10:46:51.538Z,-0.7156
2023-01-25T10:47:51.556Z,-0.7156
2023-01-25T10:48:51.620Z,-0.7002
2023-01-25T10:49:51.689Z,-0.7369
2023-01-25T10:50:51.664Z,-0.7369
2023-01-25T10:51:51.702Z,-0.7443
2023-01-25T10:52:51.730Z,-0.7215
2023-01-25T10:53:51.760Z,-0.7215
2023-01-25T10:54:51.822Z,-0.7597
2023-01-25T10:55:51.828Z,-0.7263
2023-01-25T10:56:51.865Z,-0.6938
2023-01-25T10:57:51.919Z,-0.7614
2023-01-25T10:58:51.947Z,-0.746
2023-01-25T10:59:51.981Z,-0.746
2023-01-25T11:00:52.015Z,-0.746
2023-01-25T11:01:52.178Z,-0.746
2023-01-25T11:02:52.128Z,-0.746
2023-01-25T11:03:52.121Z,-0.7921
2023-01-25T11:04:52.142Z,-0.7841
2023-01-25T11:05:52.173Z,-0.7534
2023-01-25T11:06:52.247Z,-0.7075
2023-01-25T11:07:52.251Z,-0.6844
2023-01-25T11:08:52.307Z,-0.6616
2023-01-25T11:09:52.318Z,-0.6464
2023-01-25T11:10:52.364Z,-0.6312
2023-01-25T11:11:52.386Z,-0.6084
2023-01-25T11:12:52.409Z,-0.6236
2023-01-25T11:13:52.472Z,-0.6389
2023-01-25T11:14:52.501Z,-0.6541
2023-01-25T11:15:52.586Z,-0.6694
2023-01-25T11:16:52.576Z,-0.6629
2023-01-25T11:17:52.601Z,-0.6476
2023-01-25T11:18:52.676Z,-0.5944
2023-01-25T11:19:52.665Z,-0.5972
2023-01-25T11:20:52.698Z,-0.6142
2023-01-25T11:21:52.744Z,-0.599
2023-01-25T11:22:52.777Z,-0.5915
2023-01-25T11:23:52.832Z,-0.5915
2023-01-25T11:24:52.834Z,-0.5915
2023-01-25T11:25:52.863Z,-0.6156
2023-01-25T11:26:52.902Z,-0.6309
2023-01-25T11:27:52.942Z,-0.6462
2023-01-25T11:28:52.973Z,-0.6309
2023-01-25T11:29:53.008Z,-0.6374
2023-01-25T11:30:53.127Z,-0.6681
2023-01-25T11:31:53.150Z,-0.6681
2023-01-25T11:32:53.123Z,-0.6681
2023-01-25T11:33:53.150Z,-0.6681
2023-01-25T11:34:53.189Z,-0.6483
2023-01-25T11:35:53.218Z,-0.6313
2023-01-25T11:36:53.287Z,-0.6313
2023-01-25T11:37:53.290Z,-0.6466
2023-01-25T11:38:53.332Z,-0.6466
2023-01-25T11:39:53.350Z,-0.662
2023-01-25T11:40:53.389Z,-0.7296
2023-01-25T11:41:53.462Z,-0.7142
2023-01-25T11:42:53.458Z,-0.7296
2023-01-25T11:43:53.525Z,-0.7296
2023-01-25T11:44:53.538Z,-0.7296
2023-01-25T11:45:53.575Z,-0.745
2023-01-25T11:46:53.613Z,-0.745
2023-01-25T11:47:53.654Z,-0.745
2023-01-25T11:48:53.716Z,-0.7604
2023-01-25T11:49:53.731Z,-0.745
2023-01-25T11:50:53.761Z,-0.7296
2023-01-25T11:51:54.849Z,-0.745
2023-01-25T11:52:53.828Z,-0.7296
2023-01-25T11:53:53.861Z,-0.6929
2023-01-25T11:54:53.895Z,-0.6929
2023-01-25T11:55:53.933Z,-0.6929
2023-01-25T11:56:53.973Z,-0.6929
2023-01-25T11:57:54.020Z,-0.662
2023-01-25T11:58:54.069Z,-0.6775
2023-01-25T11:59:54.085Z,-0.6775
2023-01-25T12:00:54.125Z,-0.662
2023-01-25T12:01:54.164Z,-0.662
2023-01-25T12:02:54.262Z,-0.6466
2023-01-25T12:03:54.300Z,-0.6483
2023-01-25T12:04:54.266Z,-0.6681
2023-01-25T12:05:54.302Z,-0.6527
2023-01-25T12:06:54.341Z,-0.6374
2023-01-25T12:07:54.388Z,-0.6448
2023-01-25T12:08:54.426Z,-0.6221
2023-01-25T12:09:54.440Z,-0.6068
2023-01-25T12:10:54.481Z,-0.5699
2023-01-25T12:11:54.506Z,-0.5852
2023-01-25T12:12:54.571Z,-0.5852
2023-01-25T12:13:54.596Z,-0.5852
2023-01-25T12:14:54.725Z,-0.6005
2023-01-25T12:15:54.735Z,-0.6159
2023-01-25T12:16:54.718Z,-0.6159